Time;durP1;ratioP1;P1;durP2;ratioP2;P2;SDS_P1;SDS_P2;PMS_P1;PMS_P2;Temp;Humidity;BMP_temperature;BMP_pressure;BME280_temperature;BME280_humidity;BME280_pressure;Samples;Min_cycle;Max_cycle;Signal;HPM_P1;HPM_P2
2022/03/06 00:01:01;;;;;;;40.88;29.55;;;;;;;-0.28;73.31;102323.59;5128609;28;20141;-79
2022/03/06 00:03:27;;;;;;;40.60;28.60;;;;;;;-0.35;73.36;102316.84;5128816;27;20104;-79
2022/03/06 00:05:52;;;;;;;40.45;26.92;;;;;;;-0.36;73.46;102325.38;5109901;28;20023;-79
2022/03/06 00:08:17;;;;;;;39.30;27.73;;;;;;;-0.39;73.75;102320.34;5128867;28;20035;-79
2022/03/06 00:10:43;;;;;;;41.65;28.02;;;;;;;-0.42;73.66;102320.34;5113615;28;20065;-79
2022/03/06 00:13:08;;;;;;;40.25;27.55;;;;;;;-0.46;74.16;102318.69;5112352;28;20073;-79
2022/03/06 00:15:34;;;;;;;43.30;28.42;;;;;;;-0.39;73.30;102325.44;5111781;28;20051;-81
2022/03/06 00:17:59;;;;;;;41.22;29.75;;;;;;;-0.42;73.97;102330.53;5112894;28;20459;-79
2022/03/06 00:20:24;;;;;;;42.00;28.35;;;;;;;-0.46;73.42;102319.56;5112413;28;20027;-79
2022/03/06 00:22:50;;;;;;;38.55;27.83;;;;;;;-0.46;73.61;102324.66;5112107;28;20437;-79
2022/03/06 00:25:16;;;;;;;41.33;27.65;;;;;;;-0.42;73.89;102325.44;5110874;28;20536;-79
2022/03/06 00:27:41;;;;;;;40.75;28.13;;;;;;;-0.46;74.26;102316.13;5112002;28;20039;-78
2022/03/06 00:30:08;;;;;;;40.50;27.58;;;;;;;-0.48;74.22;102326.38;5133941;27;20031;-79
2022/03/06 00:32:33;;;;;;;40.70;28.23;;;;;;;-0.51;74.19;102328.97;5113661;27;20023;-80
2022/03/06 00:34:59;;;;;;;39.50;28.15;;;;;;;-0.58;74.05;102320.50;5132554;27;20034;-80
2022/03/06 00:37:24;;;;;;;42.05;27.42;;;;;;;-0.52;74.28;102328.97;5132242;27;20563;-79
2022/03/06 00:39:49;;;;;;;40.65;28.75;;;;;;;-0.65;74.55;102320.63;5113442;27;20027;-79
2022/03/06 00:42:15;;;;;;;41.38;28.85;;;;;;;-0.67;74.45;102325.72;5132552;27;20023;-80
2022/03/06 00:44:40;;;;;;;38.63;27.58;;;;;;;-0.70;74.26;102318.09;5131133;27;20039;-79
2022/03/06 00:47:06;;;;;;;42.20;28.48;;;;;;;-0.65;74.61;102333.34;5132131;27;20029;-79
2022/03/06 00:49:31;;;;;;;39.40;27.15;;;;;;;-0.65;75.03;102334.19;5131362;27;20031;-80
2022/03/06 00:51:58;;;;;;;39.65;28.30;;;;;;;-0.63;75.00;102346.91;5132216;27;20494;-79
2022/03/06 00:54:23;;;;;;;37.70;26.85;;;;;;;-0.65;74.66;102343.53;5131967;27;20023;-79
2022/03/06 00:56:49;;;;;;;39.40;25.90;;;;;;;-0.68;74.87;102333.41;5131387;27;20034;-79
2022/03/06 00:59:14;;;;;;;40.35;27.40;;;;;;;-0.75;75.20;102322.41;5131524;27;20031;-80
2022/03/06 01:01:40;;;;;;;37.25;27.30;;;;;;;-0.67;75.01;102335.94;5131524;27;20535;-79
2022/03/06 01:04:05;;;;;;;40.08;26.08;;;;;;;-0.61;75.14;102356.25;5131222;27;20035;-80
2022/03/06 01:06:31;;;;;;;39.22;27.80;;;;;;;-0.72;74.93;102337.69;5131143;27;20027;-80
2022/03/06 01:08:56;;;;;;;37.17;27.48;;;;;;;-0.63;75.39;102352.88;5131444;27;20035;-80
2022/03/06 01:11:22;;;;;;;38.03;26.27;;;;;;;-0.74;75.54;102344.50;5109790;28;20019;-80
2022/03/06 01:13:47;;;;;;;37.92;26.88;;;;;;;-0.75;75.45;102358.06;5110838;28;20564;-80
2022/03/06 01:16:13;;;;;;;36.97;26.83;;;;;;;-0.79;75.40;102343.69;5111213;28;20051;-80
2022/03/06 01:18:39;;;;;;;39.05;26.20;;;;;;;-0.76;75.65;102361.47;5111032;28;20028;-80
2022/03/06 01:21:04;;;;;;;37.80;26.58;;;;;;;-0.81;75.27;102347.94;5111520;28;20498;-80
2022/03/06 01:23:30;;;;;;;38.28;26.67;;;;;;;-0.83;75.85;102349.66;5114610;27;20040;-80
2022/03/06 01:25:55;;;;;;;37.22;26.98;;;;;;;-0.75;75.55;102358.06;5126534;27;20145;-81
2022/03/06 01:28:21;;;;;;;38.63;26.52;;;;;;;-0.87;75.69;102348.00;5115319;27;20436;-80
2022/03/06 01:30:46;;;;;;;39.05;27.40;;;;;;;-0.87;76.02;102358.19;5110587;28;20112;-80
2022/03/06 01:33:12;;;;;;;38.25;26.33;;;;;;;-0.88;75.88;102361.59;5111267;28;20348;-80
2022/03/06 01:35:37;;;;;;;39.45;27.67;;;;;;;-0.91;76.07;102371.84;5110550;28;20027;-80
2022/03/06 01:38:03;;;;;;;38.67;27.80;;;;;;;-0.92;76.21;102378.63;5092151;28;20030;-80
2022/03/06 01:40:28;;;;;;;39.42;26.80;;;;;;;-0.96;76.11;102376.13;5110548;28;20031;-81
2022/03/06 01:42:53;;;;;;;40.35;27.67;;;;;;;-1.09;76.76;102358.41;5118890;27;20034;-79
2022/03/06 01:45:21;;;;;;;41.25;27.65;;;;;;;-1.02;76.86;102373.63;5112447;27;20486;-80
2022/03/06 01:47:49;;;;;;;38.40;27.08;;;;;;;-1.14;77.13;102365.25;5112193;27;20031;-80
2022/03/06 01:50:24;;;;;;;38.38;25.88;;;;;;;-1.08;77.65;102370.28;5131329;27;20043;-79
2022/03/06 01:52:52;;;;;;;36.40;25.60;;;;;;;-1.19;77.09;102350.84;5130709;27;20069;-81
2022/03/06 01:55:20;;;;;;;37.35;26.67;;;;;;;-1.10;77.16;102366.88;5116832;27;20026;-81
2022/03/06 01:57:47;;;;;;;37.70;27.20;;;;;;;-1.18;77.55;102358.47;5097249;28;20036;-80
2022/03/06 02:00:22;;;;;;;36.33;25.23;;;;;;;-1.15;76.90;102371.19;5110688;28;20061;-81
2022/03/06 02:02:47;;;;;;;38.80;25.88;;;;;;;-1.16;77.36;102369.47;5111681;27;20031;-80
2022/03/06 02:05:13;;;;;;;35.88;25.63;;;;;;;-1.16;77.41;102369.47;5131109;27;20024;-80
2022/03/06 02:07:39;;;;;;;36.72;26.85;;;;;;;-1.16;77.02;102371.19;5130265;27;20417;-80
2022/03/06 02:10:06;;;;;;;37.10;26.25;;;;;;;-1.18;77.53;102373.75;5130531;27;20023;-81
2022/03/06 02:12:34;;;;;;;36.50;25.65;;;;;;;-1.23;77.38;102375.47;5111703;27;20459;-81
2022/03/06 02:15:01;;;;;;;36.78;26.25;;;;;;;-1.30;77.31;102358.56;5111978;27;20076;-81
2022/03/06 02:17:27;;;;;;;35.75;24.83;;;;;;;-1.29;77.47;102360.25;5130493;27;20109;-82
2022/03/06 02:19:58;;;;;;;36.40;26.13;;;;;;;-1.24;78.07;102380.59;5130071;27;20527;-81
2022/03/06 02:22:29;;;;;;;35.05;26.13;;;;;;;-1.30;77.84;102373.00;5130331;27;20102;-80
2022/03/06 02:24:57;;;;;;;36.47;24.90;;;;;;;-1.33;77.32;102368.75;5130145;27;20045;-80
2022/03/06 02:27:23;;;;;;;36.15;25.70;;;;;;;-1.29;77.73;102380.63;5112261;27;20046;-83
2022/03/06 02:29:49;;;;;;;34.63;24.85;;;;;;;-1.26;77.20;102380.63;5122135;27;20471;-80
2022/03/06 02:32:17;;;;;;;33.72;24.58;;;;;;;-1.25;77.98;102379.75;5112150;27;20034;-80
2022/03/06 02:34:44;;;;;;;;;;;;;;;-1.19;77.04;102382.25;5129800;27;20043;-80
2022/03/06 02:37:10;;;;;;;38.63;26.92;;;;;;;-1.31;77.74;102367.06;5130289;27;19969;-80
2022/03/06 02:39:35;;;;;;;32.25;24.17;;;;;;;-1.29;77.39;102375.53;5110493;27;20527;-80
2022/03/06 02:42:01;;;;;;;35.75;26.77;;;;;;;-1.28;77.10;102382.31;5130378;27;20027;-79
2022/03/06 02:44:28;;;;;;;35.90;25.73;;;;;;;-1.41;77.05;102360.34;5129946;27;20055;-80
2022/03/06 02:46:54;;;;;;;33.50;25.17;;;;;;;-1.40;77.21;102367.13;5092084;28;20406;-80
2022/03/06 02:49:20;;;;;;;35.90;24.80;;;;;;;-1.36;77.69;102373.91;5110161;27;20035;-80
2022/03/06 02:51:45;;;;;;;31.95;24.58;;;;;;;-1.40;77.36;102377.31;5095269;27;20516;-80
2022/03/06 02:54:12;;;;;;;34.58;25.52;;;;;;;-1.33;76.80;102389.13;5128888;27;20499;-80
2022/03/06 02:56:37;;;;;;;31.30;24.67;;;;;;;-1.40;77.21;102377.31;5117561;27;20252;-80
2022/03/06 02:59:04;;;;;;;34.55;25.02;;;;;;;-1.43;77.42;102362.06;5129614;27;20054;-81
2022/03/06 03:01:30;;;;;;;33.75;25.75;;;;;;;-1.34;77.19;102383.19;5110161;27;20027;-80
2022/03/06 03:03:55;;;;;;;33.35;26.00;;;;;;;-1.44;77.34;102362.91;5119247;27;20375;-80
2022/03/06 03:06:21;;;;;;;32.80;25.25;;;;;;;-1.35;77.50;102375.56;5129465;27;20052;-80
2022/03/06 03:08:47;;;;;;;34.38;25.77;;;;;;;-1.40;77.55;102369.66;5125278;27;20027;-80
2022/03/06 03:11:12;;;;;;;33.10;25.02;;;;;;;-1.44;77.50;102360.38;5127370;27;20023;-80
2022/03/06 03:13:38;;;;;;;36.38;26.35;;;;;;;-1.36;77.26;102379.81;5114179;27;20064;-80
2022/03/06 03:16:04;;;;;;;33.60;24.45;;;;;;;-1.44;76.85;102371.38;5126489;27;20061;-80
2022/03/06 03:18:29;;;;;;;29.48;23.05;;;;;;;-1.46;77.35;102367.16;5128838;27;20023;-80
2022/03/06 03:20:55;;;;;;;33.03;24.67;;;;;;;-1.43;76.90;102379.88;5117543;27;20481;-80
2022/03/06 03:23:20;;;;;;;31.70;24.45;;;;;;;-1.39;77.77;102386.63;5106747;28;20048;-81
2022/03/06 03:25:46;;;;;;;32.78;26.15;;;;;;;-1.50;77.51;102368.03;5122391;27;20108;-80
2022/03/06 03:28:11;;;;;;;33.20;25.58;;;;;;;-1.42;77.78;102392.59;5106982;27;20028;-80
2022/03/06 03:30:36;;;;;;;32.88;25.65;;;;;;;-1.51;77.37;102371.44;5115644;27;20041;-79
2022/03/06 03:33:02;;;;;;;33.33;25.25;;;;;;;-1.50;77.56;102375.69;5112210;27;20126;-80
2022/03/06 03:35:28;;;;;;;30.88;25.23;;;;;;;-1.46;77.28;102392.63;5120065;28;20026;-80
2022/03/06 03:37:54;;;;;;;34.00;26.13;;;;;;;-1.48;77.06;102392.63;5107415;28;20533;-80
2022/03/06 03:40:19;;;;;;;32.63;25.38;;;;;;;-1.47;77.35;102398.56;5109060;28;20031;-79
2022/03/06 03:42:45;;;;;;;31.42;24.73;;;;;;;-1.56;78.03;102390.97;5108353;28;20059;-80
2022/03/06 03:45:10;;;;;;;31.00;24.35;;;;;;;-1.61;77.41;102391.00;5109334;28;20531;-80
2022/03/06 03:47:36;;;;;;;30.55;24.13;;;;;;;-1.75;77.35;102370.75;5099822;28;20043;-79
2022/03/06 03:50:02;;;;;;;31.67;24.27;;;;;;;-1.63;77.75;102380.84;5094237;27;20020;-79
2022/03/06 03:52:28;;;;;;;30.85;24.33;;;;;;;-1.66;78.02;102380.88;5110105;28;20038;-80
2022/03/06 03:54:53;;;;;;;31.00;24.15;;;;;;;-1.59;77.62;102385.94;5117492;27;20015;-79
2022/03/06 03:57:18;;;;;;;31.63;24.50;;;;;;;-1.63;77.21;102385.94;5119500;27;20112;-81
2022/03/06 03:59:44;;;;;;;32.20;24.85;;;;;;;-1.67;77.63;102383.41;5111727;27;20098;-79
2022/03/06 04:02:09;;;;;;;30.98;24.33;;;;;;;-1.62;77.94;102390.16;5102518;27;20026;-79
2022/03/06 04:04:35;;;;;;;31.90;24.98;;;;;;;-1.64;77.54;102383.41;5125253;27;20030;-79
2022/03/06 04:07:00;;;;;;;30.48;24.05;;;;;;;-1.67;77.08;102389.34;5111116;28;20035;-79
2022/03/06 04:09:25;;;;;;;30.27;23.65;;;;;;;-1.69;77.44;102391.06;5111708;28;20058;-79
2022/03/06 04:11:51;;;;;;;30.25;24.73;;;;;;;-1.74;77.22;102387.69;5112214;27;20031;-80
2022/03/06 04:14:17;;;;;;;31.75;26.10;;;;;;;-1.77;77.45;102392.81;5113444;27;20039;-79
2022/03/06 04:16:42;;;;;;;30.17;24.15;;;;;;;-1.70;77.54;102394.47;5130171;27;20037;-81
2022/03/06 04:19:08;;;;;;;30.77;25.00;;;;;;;-1.72;77.55;102396.19;5132067;27;20042;-79
2022/03/06 04:21:34;;;;;;;28.30;24.15;;;;;;;-1.74;77.66;102408.03;5130994;27;20507;-80
2022/03/06 04:23:59;;;;;;;30.48;24.35;;;;;;;-1.81;77.76;102396.22;5131556;27;20071;-78
2022/03/06 04:26:24;;;;;;;29.60;24.08;;;;;;;-1.76;78.00;102419.09;5115219;27;20400;-80
2022/03/06 04:28:50;;;;;;;30.25;24.40;;;;;;;-1.80;78.37;102418.25;5109722;28;20024;-79
2022/03/06 04:31:15;;;;;;;29.55;23.98;;;;;;;-1.84;77.79;102411.47;5109889;28;20019;-80
2022/03/06 04:33:41;;;;;;;31.27;24.45;;;;;;;-1.81;77.46;102419.09;5111479;28;20030;-79
2022/03/06 04:36:07;;;;;;;29.60;23.20;;;;;;;-1.87;77.72;102412.34;5111051;28;20038;-80
2022/03/06 04:38:33;;;;;;;30.98;23.45;;;;;;;-1.78;78.23;102429.25;5109622;28;20471;-80
2022/03/06 04:40:58;;;;;;;28.50;23.75;;;;;;;-1.78;78.08;102426.69;5111054;28;20526;-81
2022/03/06 04:43:24;;;;;;;32.28;24.63;;;;;;;-1.82;77.77;102437.75;5109474;28;20030;-78
2022/03/06 04:45:50;;;;;;;29.05;23.13;;;;;;;-1.77;77.47;102443.69;5122885;27;20038;-81
2022/03/06 04:48:16;;;;;;;28.88;24.15;;;;;;;-1.81;77.31;102436.91;5131106;27;20387;-79
2022/03/06 04:50:41;;;;;;;28.30;23.65;;;;;;;-1.86;77.35;102438.63;5113824;27;20089;-79
2022/03/06 04:53:06;;;;;;;29.85;24.33;;;;;;;-1.84;77.54;102452.16;5110652;28;20490;-79
2022/03/06 04:55:32;;;;;;;27.15;21.85;;;;;;;-1.86;77.00;102446.25;5119032;27;20482;-79
2022/03/06 04:57:57;;;;;;;27.73;23.60;;;;;;;-1.87;77.41;102447.09;5110370;28;20382;-79
2022/03/06 05:00:23;;;;;;;28.20;23.42;;;;;;;-1.91;77.55;102455.59;5122937;27;20072;-79
2022/03/06 05:02:48;;;;;;;29.05;23.85;;;;;;;-1.88;77.82;102460.69;5108102;27;20046;-80
2022/03/06 05:05:13;;;;;;;28.85;23.67;;;;;;;-1.95;78.11;102456.44;5111015;27;20074;-80
2022/03/06 05:07:39;;;;;;;28.42;24.00;;;;;;;-1.89;78.36;102469.16;5110302;28;20035;-79
2022/03/06 05:10:12;;;;;;;27.88;22.88;;;;;;;-1.90;77.26;102475.06;5109170;28;20454;-79
2022/03/06 05:12:40;;;;;;;28.42;22.88;;;;;;;-1.91;78.11;102473.38;5110262;28;20055;-79
2022/03/06 05:15:08;;;;;;;28.10;23.05;;;;;;;-1.95;77.33;102469.16;5110728;28;20048;-79
2022/03/06 05:17:33;;;;;;;28.92;24.05;;;;;;;-1.98;77.77;102469.19;5110150;28;20497;-79
2022/03/06 05:19:59;;;;;;;27.73;23.00;;;;;;;-2.07;78.05;102456.47;5114858;27;20026;-80
2022/03/06 05:22:24;;;;;;;30.73;23.15;;;;;;;-1.99;78.07;102472.56;5114382;27;20027;-79
2022/03/06 05:24:49;;;;;;;29.08;23.40;;;;;;;-1.97;77.65;102470.88;5109651;28;20066;-79
2022/03/06 05:27:15;;;;;;;27.27;22.48;;;;;;;-1.99;77.52;102470.03;5110748;28;20363;-80
2022/03/06 05:29:40;;;;;;;27.48;23.55;;;;;;;-2.05;78.14;102467.50;5108512;28;20454;-80
2022/03/06 05:32:06;;;;;;;28.90;23.33;;;;;;;-2.19;77.92;102453.13;5108789;28;20063;-80
2022/03/06 05:34:31;;;;;;;28.75;23.35;;;;;;;-2.05;78.41;102477.69;5109521;28;20020;-80
2022/03/06 05:36:57;;;;;;;28.95;24.10;;;;;;;-2.13;78.18;102465.81;5109790;27;20023;-80
2022/03/06 05:39:22;;;;;;;28.05;23.52;;;;;;;-2.17;77.84;102464.16;5109511;27;20034;-80
2022/03/06 05:41:48;;;;;;;29.17;24.05;;;;;;;-2.08;78.85;102477.66;5109744;28;20027;-80
2022/03/06 05:44:13;;;;;;;28.77;23.83;;;;;;;-2.15;78.32;102480.22;5108510;27;20035;-80
2022/03/06 05:46:38;;;;;;;27.83;22.42;;;;;;;-2.15;78.38;102477.69;5110014;27;20028;-80
2022/03/06 05:49:12;;;;;;;28.77;22.85;;;;;;;-2.16;78.53;102481.09;5129741;27;20497;-80
2022/03/06 05:51:39;;;;;;;29.50;23.25;;;;;;;-2.11;78.92;102488.72;5128196;27;20034;-80
2022/03/06 05:54:04;;;;;;;29.90;24.10;;;;;;;-2.18;78.39;102492.97;5130220;27;20030;-80
2022/03/06 05:56:30;;;;;;;29.42;23.52;;;;;;;-2.21;78.38;102498.03;5129316;27;20360;-80
2022/03/06 05:58:55;;;;;;;28.98;23.85;;;;;;;-2.26;78.63;102478.56;5110200;27;20148;-80
2022/03/06 06:01:20;;;;;;;28.92;23.88;;;;;;;-2.21;78.17;102505.66;5109883;28;20038;-80
2022/03/06 06:03:46;;;;;;;28.45;22.83;;;;;;;-2.34;78.83;102486.22;5108950;28;20035;-79
2022/03/06 06:06:12;;;;;;;28.65;23.15;;;;;;;-2.25;78.45;102506.50;5105810;27;20052;-80
2022/03/06 06:08:37;;;;;;;30.83;23.98;;;;;;;-2.27;79.04;102513.28;5091143;27;20024;-80
2022/03/06 06:11:03;;;;;;;29.77;23.65;;;;;;;-2.33;78.78;102512.47;5098359;27;20019;-79
2022/03/06 06:13:28;;;;;;;28.98;23.40;;;;;;;-2.32;78.83;102509.91;5128465;27;20482;-80
2022/03/06 06:15:55;;;;;;;28.35;22.95;;;;;;;-2.33;79.07;102513.31;5115649;27;20034;-80
2022/03/06 06:18:21;;;;;;;29.35;23.77;;;;;;;-2.34;78.83;102521.78;5104069;27;20038;-81
2022/03/06 06:20:46;;;;;;;28.02;23.17;;;;;;;-2.31;79.15;102521.75;5105940;27;20027;-80
2022/03/06 06:23:12;;;;;;;28.77;24.42;;;;;;;-2.31;79.56;102520.91;5094973;27;20459;-81
2022/03/06 06:25:37;;;;;;;28.05;22.70;;;;;;;-2.31;79.04;102526.84;5098086;28;20032;-79
2022/03/06 06:28:03;;;;;;;26.75;22.50;;;;;;;-2.42;79.43;102508.22;5118170;27;20072;-80
2022/03/06 06:30:28;;;;;;;29.98;23.33;;;;;;;-2.49;79.12;102501.47;5114431;27;20048;-80
2022/03/06 06:32:54;;;;;;;29.60;23.95;;;;;;;-2.32;78.81;102540.41;5108555;27;20027;-80
2022/03/06 06:35:20;;;;;;;29.80;23.00;;;;;;;-2.37;79.15;102521.78;5109475;28;20023;-80
2022/03/06 06:37:45;;;;;;;30.15;24.45;;;;;;;-2.30;79.16;102533.63;5117017;27;20030;-79
2022/03/06 06:40:13;;;;;;;29.35;24.55;;;;;;;-2.39;79.95;102523.47;5127420;27;20030;-79
2022/03/06 06:42:38;;;;;;;28.53;22.90;;;;;;;-2.28;79.29;102542.09;5129431;27;20056;-79
2022/03/06 06:45:04;;;;;;;29.23;23.55;;;;;;;-2.28;79.65;102551.44;5129554;27;20023;-80
2022/03/06 06:47:29;;;;;;;27.27;23.63;;;;;;;-2.41;79.32;102535.31;5128388;27;20031;-79
2022/03/06 06:49:55;;;;;;;28.77;24.13;;;;;;;-2.39;80.01;102520.94;5119938;27;20453;-79
2022/03/06 06:52:20;;;;;;;28.65;23.73;;;;;;;-2.28;79.91;102544.66;5116138;27;20028;-78
2022/03/06 06:54:45;;;;;;;29.30;22.80;;;;;;;-2.17;78.92;102555.66;5091702;27;20016;-78
2022/03/06 06:57:11;;;;;;;29.05;23.48;;;;;;;-2.17;79.55;102560.72;5100795;27;20028;-79
2022/03/06 06:59:36;;;;;;;28.77;23.95;;;;;;;-2.22;79.71;102552.25;5091811;28;20529;-80
2022/03/06 07:02:02;;;;;;;31.35;24.33;;;;;;;-2.15;79.47;102564.13;5123631;27;20034;-79
2022/03/06 07:04:27;;;;;;;29.40;24.75;;;;;;;-2.18;79.78;102555.63;5109637;28;20023;-80
2022/03/06 07:06:52;;;;;;;29.73;24.85;;;;;;;-2.07;79.60;102571.72;5108430;28;20038;-78
2022/03/06 07:09:18;;;;;;;30.80;24.90;;;;;;;-2.03;80.06;102578.50;5108681;27;20122;-80
2022/03/06 07:11:43;;;;;;;28.33;24.83;;;;;;;-1.99;80.15;102574.28;5123753;27;20043;-79
2022/03/06 07:14:08;;;;;;;30.80;26.00;;;;;;;-2.04;79.55;102566.66;5109895;27;20436;-78
2022/03/06 07:16:34;;;;;;;30.13;25.17;;;;;;;-1.94;80.09;102577.66;5122490;27;20041;-81
2022/03/06 07:19:00;;;;;;;31.58;25.35;;;;;;;-1.91;80.54;102587.81;5127613;27;20019;-80
2022/03/06 07:21:26;;;;;;;31.30;26.75;;;;;;;-1.95;80.19;102575.94;5106154;27;20045;-78
2022/03/06 07:23:51;;;;;;;30.45;25.92;;;;;;;-1.97;80.52;102573.41;5122996;27;20402;-80
2022/03/06 07:26:17;;;;;;;29.05;25.75;;;;;;;-1.82;80.34;102585.25;5093116;28;20028;-79
2022/03/06 07:28:42;;;;;;;29.35;26.15;;;;;;;-1.82;79.77;102590.34;5104612;28;20016;-79
2022/03/06 07:31:09;;;;;;;29.73;26.23;;;;;;;-1.79;80.18;102600.50;5089973;28;20043;-80
2022/03/06 07:33:34;;;;;;;29.88;26.48;;;;;;;-1.76;80.03;102603.06;5114980;28;20463;-79
2022/03/06 07:36:00;;;;;;;28.52;25.42;;;;;;;-1.78;80.29;102594.56;5089133;28;20032;-78
2022/03/06 07:38:25;;;;;;;31.73;27.10;;;;;;;-1.71;81.17;102606.44;5089136;28;20027;-78
2022/03/06 07:40:50;;;;;;;30.52;26.23;;;;;;;-1.77;80.86;102588.66;5105757;28;20031;-76
2022/03/06 07:43:16;;;;;;;29.23;25.42;;;;;;;-1.64;80.15;102613.19;5108411;28;20076;-78
2022/03/06 07:45:41;;;;;;;29.38;26.17;;;;;;;-1.62;79.94;102616.56;5107458;28;20474;-77
2022/03/06 07:48:06;;;;;;;30.80;25.00;;;;;;;-1.55;80.32;102626.72;5116566;28;20481;-76
2022/03/06 07:50:32;;;;;;;28.05;24.52;;;;;;;-1.53;80.46;102618.28;5110767;27;20035;-77
2022/03/06 07:52:57;;;;;;;29.52;25.50;;;;;;;-1.45;79.97;102618.22;5127453;28;20022;-77
2022/03/06 07:55:23;;;;;;;28.02;25.02;;;;;;;-1.49;80.04;102614.88;5116515;27;20107;-79
2022/03/06 07:57:48;;;;;;;27.75;24.75;;;;;;;-1.37;80.64;102634.34;5089496;28;20028;-79
2022/03/06 08:00:14;;;;;;;26.73;23.75;;;;;;;-1.38;80.24;102635.16;5096334;28;20024;-79
2022/03/06 08:02:40;;;;;;;28.33;24.48;;;;;;;-1.31;80.33;102636.03;5099421;28;20031;-80
2022/03/06 08:05:07;;;;;;;29.85;25.08;;;;;;;-1.27;81.06;102648.72;5089925;28;20032;-78
2022/03/06 08:07:33;;;;;;;28.67;24.75;;;;;;;-1.23;80.83;102640.22;5092744;28;20027;-79
2022/03/06 08:09:58;;;;;;;27.27;23.83;;;;;;;-1.21;80.36;102633.41;5093426;28;20020;-79
2022/03/06 08:12:26;;;;;;;27.10;23.90;;;;;;;-1.20;80.23;102637.69;5089281;28;20069;-79
2022/03/06 08:14:52;;;;;;;27.47;23.87;;;;;;;-1.14;80.40;102645.31;5090554;28;20012;-78
2022/03/06 08:17:18;;;;;;;26.50;23.13;;;;;;;-1.07;80.46;102646.13;5108835;27;20839;-78
2022/03/06 08:19:43;;;;;;;26.73;23.42;;;;;;;-0.97;80.64;102649.47;5107764;28;20028;-79
2022/03/06 08:22:09;;;;;;;27.50;23.70;;;;;;;-0.88;80.92;102657.06;5108913;28;20024;-78
2022/03/06 08:24:34;;;;;;;25.33;22.48;;;;;;;-0.83;80.56;102661.28;5107621;28;20044;-78
2022/03/06 08:26:59;;;;;;;25.52;22.38;;;;;;;-0.76;80.43;102651.91;5107640;28;20051;-77
2022/03/06 08:29:25;;;;;;;25.00;21.83;;;;;;;-0.72;79.68;102658.69;5122818;28;20673;-76
2022/03/06 08:31:50;;;;;;;25.88;22.27;;;;;;;-0.63;80.40;102657.78;5110546;27;20035;-76
2022/03/06 08:34:15;;;;;;;24.42;21.77;;;;;;;-0.61;79.93;102656.94;5112336;27;20528;-76
2022/03/06 08:36:41;;;;;;;24.48;21.98;;;;;;;-0.52;80.08;102660.25;5116479;27;20027;-79
2022/03/06 08:39:07;;;;;;;24.45;21.30;;;;;;;-0.44;80.08;102658.53;5123648;27;20109;-78
2022/03/06 08:41:33;;;;;;;23.92;21.15;;;;;;;-0.38;80.08;102664.44;5114487;27;20395;-77
2022/03/06 08:43:58;;;;;;;24.70;22.10;;;;;;;-0.30;79.56;102661.81;5101886;27;20046;-77
2022/03/06 08:46:24;;;;;;;22.83;20.33;;;;;;;-0.21;80.07;102669.41;5110215;28;20027;-77
2022/03/06 08:48:49;;;;;;;21.92;19.63;;;;;;;-0.25;79.29;102644.78;5124476;27;20069;-77
2022/03/06 08:51:15;;;;;;;21.98;19.67;;;;;;;-0.15;78.43;102664.28;5110845;27;20642;-78
2022/03/06 08:53:41;;;;;;;22.25;19.92;;;;;;;-0.07;78.74;102665.03;5128970;27;20531;-77
2022/03/06 08:56:06;;;;;;;23.80;19.90;;;;;;;-0.05;78.91;102653.16;5117181;27;20421;-77
2022/03/06 08:58:31;;;;;;;22.05;19.75;;;;;;;0.08;78.19;102673.44;5110356;28;20066;-77
2022/03/06 09:00:57;;;;;;;21.38;18.73;;;;;;;0.11;77.88;102678.50;5110739;27;20063;-77
2022/03/06 09:03:22;;;;;;;22.00;19.52;;;;;;;0.21;78.52;102664.81;5131873;27;20408;-78
2022/03/06 09:05:48;;;;;;;22.05;19.75;;;;;;;0.24;78.44;102659.72;5113938;27;20472;-77
2022/03/06 09:08:13;;;;;;;22.23;19.83;;;;;;;0.35;78.40;102667.25;5124433;27;20030;-77
2022/03/06 09:10:40;;;;;;;21.90;19.55;;;;;;;0.45;77.74;102668.84;5129164;27;20027;-78
2022/03/06 09:13:07;;;;;;;23.35;19.48;;;;;;;0.52;77.21;102671.34;5122336;27;20353;-78
2022/03/06 09:15:33;;;;;;;21.48;18.52;;;;;;;0.51;76.81;102661.97;5109159;28;20023;-78
2022/03/06 09:17:59;;;;;;;19.88;17.77;;;;;;;0.66;76.87;102668.63;5110618;28;20127;-77
2022/03/06 09:20:25;;;;;;;21.98;18.80;;;;;;;0.79;77.56;102677.84;5119135;27;20102;-77
2022/03/06 09:22:52;;;;;;;19.63;17.45;;;;;;;0.80;76.24;102665.91;5129755;27;20394;-77
2022/03/06 09:25:17;;;;;;;19.90;17.23;;;;;;;0.82;75.17;102661.66;5115254;27;20126;-77
2022/03/06 09:27:43;;;;;;;18.98;16.92;;;;;;;0.99;75.53;102687.84;5109807;28;20110;-77
2022/03/06 09:30:09;;;;;;;19.20;16.33;;;;;;;1.01;75.03;102668.22;5118680;27;20133;-78
2022/03/06 09:32:35;;;;;;;18.70;16.70;;;;;;;1.12;74.61;102673.22;5123715;27;20031;-77
2022/03/06 09:35:01;;;;;;;18.10;16.02;;;;;;;1.16;74.55;102674.03;5125811;27;20061;-77
2022/03/06 09:37:26;;;;;;;18.60;16.50;;;;;;;1.22;74.49;102658.63;5130681;27;20035;-77
2022/03/06 09:39:51;;;;;;;17.45;15.65;;;;;;;1.38;74.55;102674.56;5128563;27;20374;-77
2022/03/06 09:42:18;;;;;;;18.20;14.80;;;;;;;1.40;73.84;102672.84;5130231;27;20042;-77
2022/03/06 09:44:45;;;;;;;18.02;14.38;;;;;;;1.51;72.46;102687.19;5117705;27;20031;-77
2022/03/06 09:47:12;;;;;;;18.17;14.50;;;;;;;1.58;73.15;102668.31;5110013;27;20484;-80
2022/03/06 09:49:37;;;;;;;18.00;15.13;;;;;;;1.66;72.92;102677.59;5129093;27;20023;-77
2022/03/06 09:52:03;;;;;;;16.90;14.82;;;;;;;1.71;72.95;102683.47;5116390;27;20027;-77
2022/03/06 09:54:29;;;;;;;16.77;14.75;;;;;;;1.76;72.56;102679.16;5118171;27;20027;-77
2022/03/06 09:56:55;;;;;;;17.67;14.48;;;;;;;1.80;72.86;102662.88;5109831;28;20069;-77
2022/03/06 09:59:20;;;;;;;17.98;14.43;;;;;;;1.84;71.56;102664.53;5109719;27;20027;-76
2022/03/06 10:01:46;;;;;;;16.20;13.57;;;;;;;1.93;71.19;102674.63;5111982;27;20034;-77
2022/03/06 10:04:26;;;;;;;16.95;13.88;;;;;;;1.93;70.68;102668.66;5108381;27;20031;-77
2022/03/06 10:07:13;;;;;;;15.55;13.80;;;;;;;1.98;70.53;102652.34;5109595;28;20036;-77
2022/03/06 10:09:54;;;;;;;15.50;13.48;;;;;;;2.12;70.44;102660.66;5110598;27;20024;-77
2022/03/06 10:12:23;;;;;;;16.08;13.05;;;;;;;2.23;70.10;102667.28;5122932;27;20394;-77
2022/03/06 10:14:51;;;;;;;15.32;12.32;;;;;;;2.26;69.34;102662.97;5128036;27;20031;-77
2022/03/06 10:17:22;;;;;;;15.57;13.20;;;;;;;2.38;69.35;102667.03;5109608;27;20114;-76
2022/03/06 10:19:59;;;;;;;16.05;12.63;;;;;;;2.43;69.72;102665.25;5109271;28;20289;-77
2022/03/06 10:22:29;;;;;;;13.98;12.50;;;;;;;2.51;68.85;102662.53;5114978;27;20394;-76
2022/03/06 10:24:57;;;;;;;14.27;12.45;;;;;;;2.57;68.75;102668.38;5117808;27;20040;-77
2022/03/06 10:27:53;;;;;;;13.90;11.93;;;;;;;2.60;69.30;102663.22;5129329;27;20023;-77
2022/03/06 10:30:27;;;;;;;15.90;12.70;;;;;;;2.79;68.90;102673.09;5126621;27;20056;-77
2022/03/06 10:32:53;;;;;;;15.35;12.98;;;;;;;2.79;67.78;102667.97;5109576;27;20098;-77
2022/03/06 10:35:19;;;;;;;15.68;11.63;;;;;;;2.89;67.42;102665.22;5111255;27;20482;-78
2022/03/06 10:37:44;;;;;;;16.30;12.40;;;;;;;2.95;65.99;102663.41;5109103;28;20043;-77
2022/03/06 10:40:14;;;;;;;15.13;11.85;;;;;;;2.97;65.21;102679.56;5109692;27;20475;-77
2022/03/06 10:42:41;;;;;;;13.32;11.70;;;;;;;2.93;64.96;102661.72;5088657;28;20024;-77
2022/03/06 10:45:21;;;;;;;15.40;11.35;;;;;;;2.96;63.13;102663.34;5095099;27;20467;-77
2022/03/06 10:47:47;;;;;;;14.85;11.98;;;;;;;3.02;63.91;102678.63;5129302;27;20382;-77
2022/03/06 10:50:12;;;;;;;14.38;11.85;;;;;;;3.00;62.48;102661.59;5111046;27;20438;-77
2022/03/06 10:52:41;;;;;;;14.15;11.98;;;;;;;3.15;65.06;102667.25;5127405;27;20479;-77
2022/03/06 10:55:07;;;;;;;14.70;11.75;;;;;;;3.24;63.90;102673.88;5124898;27;20031;-78
2022/03/06 10:57:33;;;;;;;15.15;12.50;;;;;;;3.31;63.57;102666.91;5115110;27;20035;-77
2022/03/06 10:59:59;;;;;;;15.65;12.77;;;;;;;3.39;61.94;102670.16;5127273;27;20075;-79
2022/03/06 11:02:26;;;;;;;14.30;11.80;;;;;;;3.42;61.80;102675.22;5126687;27;20042;-76
2022/03/06 11:04:56;;;;;;;14.73;11.98;;;;;;;3.45;61.70;102670.03;5127728;27;20023;-77
2022/03/06 11:07:23;;;;;;;15.15;12.63;;;;;;;3.44;61.60;102663.19;5107034;28;20023;-77